Terminal Aerodrome Forecast
Issued by NWS Buffalo, NY

Home | Current Version | Previous Version | Text Only | Print | Product List | Glossary On
Versions: 1 2 3 4 5 6 7 8 9 10 11 12 13 14 15 16 17 18 19 20 21 22 23 24 25 26
630
FTUS41 KBUF 260635 AAB
TAFBUF
TAF AMD
KBUF 260635Z 2607/2706 26006KT P6SM BKN008
     FM260900 VRB03KT 2SM BR BKN007
     FM261200 24005KT P6SM SCT025
     FM261600 24010KT P6SM SKC
     FM270000 25005KT P6SM SKC=

USA.gov is the U.S. government's official web portal to all federal, state and local government web resources and services.